Time;durP1;ratioP1;P1;durP2;ratioP2;P2;SDS_P1;SDS_P2;PMS_P1;PMS_P2;Temp;Humidity;BMP_temperature;BMP_pressure;BME280_temperature;BME280_humidity;BME280_pressure;Samples;Min_cycle;Max_cycle;Signal;HPM_P1;HPM_P2
2023/02/03 00:00:05;;;;;;;24.73;18.00;;;10.20;99.90;;;;;;2093264;28;20490;-71
2023/02/03 00:01:06;;;;;;;20.67;17.27;;;10.20;99.90;;;;;;2091983;28;20039;-71
2023/02/03 00:02:07;;;;;;;21.05;17.08;;;10.20;99.90;;;;;;2091268;28;20112;-71
2023/02/03 00:03:07;;;;;;;19.33;17.40;;;10.20;99.90;;;;;;2092194;28;20477;-71
2023/02/03 00:04:07;;;;;;;19.33;16.98;;;10.20;99.90;;;;;;2092482;28;20064;-71
2023/02/03 00:05:08;;;;;;;20.00;17.92;;;10.20;99.90;;;;;;2091525;28;20052;-71
2023/02/03 00:06:09;;;;;;;23.73;18.58;;;10.20;99.90;;;;;;2093168;28;20060;-71
2023/02/03 00:07:12;;;;;;;19.50;17.50;;;10.20;99.90;;;;;;2091922;28;20033;-71
2023/02/03 00:08:14;;;;;;;22.50;17.58;;;10.20;99.90;;;;;;2095326;28;20029;-71
2023/02/03 00:09:14;;;;;;;18.42;16.63;;;10.20;99.90;;;;;;2095829;28;20025;-71
2023/02/03 00:10:20;;;;;;;19.65;17.35;;;10.20;99.90;;;;;;2091571;28;20020;-71
2023/02/03 00:11:21;;;;;;;21.95;17.05;;;10.20;99.90;;;;;;2090805;28;20057;-71
2023/02/03 00:12:21;;;;;;;18.92;16.52;;;10.20;99.90;;;;;;2092785;28;20025;-71
2023/02/03 00:13:22;;;;;;;19.40;17.10;;;10.20;99.90;;;;;;2090287;28;20024;-71
2023/02/03 00:14:23;;;;;;;20.50;16.65;;;10.20;99.90;;;;;;2093073;28;20025;-71
2023/02/03 00:15:23;;;;;;;20.52;17.13;;;10.20;99.90;;;;;;2092894;28;20094;-71
2023/02/03 00:16:24;;;;;;;19.00;17.10;;;10.10;99.90;;;;;;2090488;28;20079;-71
2023/02/03 00:17:24;;;;;;;21.10;17.20;;;10.20;99.90;;;;;;2093177;28;20446;-71
2023/02/03 00:18:25;;;;;;;18.02;16.08;;;10.20;99.90;;;;;;2091588;28;20040;-71
2023/02/03 00:19:25;;;;;;;20.73;16.35;;;10.20;99.90;;;;;;2093770;28;20039;-71
2023/02/03 00:20:26;;;;;;;20.15;16.90;;;10.20;99.90;;;;;;2092290;28;20111;-71
2023/02/03 00:21:26;;;;;;;18.45;16.52;;;10.20;99.90;;;;;;2092532;28;20021;-71
2023/02/03 00:22:27;;;;;;;19.45;17.27;;;10.20;99.90;;;;;;2093533;28;20056;-71
2023/02/03 00:23:30;;;;;;;21.65;16.75;;;10.20;99.90;;;;;;2093130;28;20037;-71
2023/02/03 00:24:31;;;;;;;21.92;17.27;;;10.20;99.90;;;;;;2092090;28;20079;-71
2023/02/03 00:25:32;;;;;;;19.23;17.27;;;10.20;99.90;;;;;;2090855;28;20563;-71
2023/02/03 00:26:32;;;;;;;24.52;17.38;;;10.20;99.90;;;;;;2092738;28;20103;-71
2023/02/03 00:27:33;;;;;;;18.90;16.90;;;10.20;99.90;;;;;;2091926;28;20043;-71
2023/02/03 00:28:33;;;;;;;20.80;17.13;;;10.20;99.90;;;;;;2091604;28;20021;-71
2023/02/03 00:29:34;;;;;;;19.73;17.20;;;10.20;99.90;;;;;;2091173;28;20523;-71
2023/02/03 00:30:35;;;;;;;19.70;17.58;;;10.20;99.90;;;;;;2091845;28;20471;-71
2023/02/03 00:31:36;;;;;;;23.40;17.50;;;10.20;99.90;;;;;;2092473;28;20033;-71
2023/02/03 00:32:37;;;;;;;22.23;17.58;;;10.20;99.90;;;;;;2090904;28;20048;-71
2023/02/03 00:33:37;;;;;;;21.67;17.17;;;10.20;99.90;;;;;;2091739;28;20020;-71
2023/02/03 00:34:38;;;;;;;22.02;17.00;;;10.20;99.90;;;;;;2091990;28;20032;-71
2023/02/03 00:35:39;;;;;;;18.88;16.55;;;10.20;99.90;;;;;;2092432;28;20166;-71
2023/02/03 00:36:39;;;;;;;20.98;17.42;;;10.30;99.90;;;;;;2092785;28;20753;-71
2023/02/03 00:37:40;;;;;;;21.65;16.80;;;10.20;99.90;;;;;;2091092;28;20052;-71
2023/02/03 00:38:40;;;;;;;19.52;15.93;;;10.20;99.90;;;;;;2092178;28;20583;-71
2023/02/03 00:39:41;;;;;;;22.05;17.20;;;10.30;99.90;;;;;;2090938;28;20096;-71
2023/02/03 00:40:41;;;;;;;21.30;16.42;;;10.20;99.90;;;;;;2090523;28;20021;-71
2023/02/03 00:41:42;;;;;;;18.63;16.48;;;10.20;99.90;;;;;;2092070;28;20115;-71
2023/02/03 00:42:42;;;;;;;22.80;16.15;;;10.20;99.90;;;;;;2091069;28;20017;-71
2023/02/03 00:43:43;;;;;;;19.88;15.75;;;10.20;99.90;;;;;;2091107;28;20048;-71
2023/02/03 00:44:44;;;;;;;21.05;16.83;;;10.20;99.90;;;;;;2092431;28;20020;-71
2023/02/03 00:45:44;;;;;;;18.52;16.52;;;10.20;99.90;;;;;;2090544;28;20052;-71
2023/02/03 00:46:45;;;;;;;22.08;17.65;;;10.20;99.90;;;;;;2091550;28;20063;-71
2023/02/03 00:47:45;;;;;;;20.10;16.27;;;10.20;99.90;;;;;;2092396;28;20036;-71
2023/02/03 00:48:46;;;;;;;20.10;16.63;;;10.20;99.90;;;;;;2091356;28;20139;-71
2023/02/03 00:49:46;;;;;;;20.77;17.30;;;10.30;99.90;;;;;;2089519;28;20025;-71
2023/02/03 00:50:47;;;;;;;20.52;15.85;;;10.20;99.90;;;;;;2090809;28;20021;-71
2023/02/03 00:51:48;;;;;;;19.15;16.08;;;10.20;99.90;;;;;;2091354;28;20407;-71
2023/02/03 00:52:48;;;;;;;22.77;17.25;;;10.20;99.90;;;;;;2094005;28;20024;-71
2023/02/03 00:53:49;;;;;;;19.05;16.15;;;10.30;99.90;;;;;;2092633;28;20021;-71
2023/02/03 00:54:50;;;;;;;18.92;16.65;;;10.20;99.90;;;;;;2093474;28;20097;-71
2023/02/03 00:55:50;;;;;;;27.17;17.70;;;10.20;99.90;;;;;;2092359;28;20025;-71
2023/02/03 00:56:51;;;;;;;18.23;16.23;;;10.20;99.90;;;;;;2092869;28;20107;-71
2023/02/03 00:57:52;;;;;;;21.45;17.08;;;10.30;99.90;;;;;;2093390;28;20055;-71
2023/02/03 00:58:52;;;;;;;21.52;16.38;;;10.20;99.90;;;;;;2092098;28;20060;-71
2023/02/03 00:59:53;;;;;;;22.80;16.75;;;10.30;99.90;;;;;;2089948;28;20044;-71
2023/02/03 01:00:57;;;;;;;20.35;16.42;;;10.20;99.90;;;;;;2093298;28;20025;-71
2023/02/03 01:01:57;;;;;;;19.15;16.45;;;10.30;99.90;;;;;;2092117;28;20368;-71
2023/02/03 01:02:58;;;;;;;21.08;16.95;;;10.30;99.90;;;;;;2091084;28;20025;-71
2023/02/03 01:03:59;;;;;;;20.40;17.77;;;10.30;99.90;;;;;;2092020;28;20033;-71
2023/02/03 01:04:59;;;;;;;22.10;17.15;;;10.30;99.90;;;;;;2092066;28;20021;-71
2023/02/03 01:06:15;;;;;;;18.38;16.48;;;10.20;99.90;;;;;;2091911;28;20121;-71
2023/02/03 01:07:16;;;;;;;22.02;17.58;;;10.20;99.90;;;;;;2093780;28;20028;-71
2023/02/03 01:08:16;;;;;;;20.52;15.82;;;10.20;99.90;;;;;;2090955;28;20063;-71
2023/02/03 01:09:17;;;;;;;21.10;17.50;;;10.20;99.90;;;;;;2092635;28;20040;-71
2023/02/03 01:10:17;;;;;;;23.20;17.92;;;10.20;99.90;;;;;;2092570;28;20024;-71
2023/02/03 01:11:21;;;;;;;19.55;16.80;;;10.20;99.90;;;;;;2090728;28;20017;-71
2023/02/03 01:12:21;;;;;;;22.50;18.00;;;10.30;99.90;;;;;;2092681;28;20492;-71
2023/02/03 01:13:22;;;;;;;21.58;17.70;;;10.20;99.90;;;;;;2093302;28;20903;-71
2023/02/03 01:14:22;;;;;;;21.45;16.88;;;10.20;99.90;;;;;;2094153;28;20128;-71
2023/02/03 01:15:23;;;;;;;20.33;17.42;;;10.20;99.90;;;;;;2093556;28;20029;-71
2023/02/03 01:16:24;;;;;;;21.48;16.95;;;10.20;99.90;;;;;;2091683;28;20116;-71
2023/02/03 01:17:24;;;;;;;20.17;17.02;;;10.20;99.90;;;;;;2091831;28;20040;-71
2023/02/03 01:18:25;;;;;;;24.27;18.00;;;10.20;99.90;;;;;;2091475;28;20113;-71
2023/02/03 01:19:26;;;;;;;23.73;18.05;;;10.20;99.90;;;;;;2091138;28;20039;-71
2023/02/03 01:20:26;;;;;;;20.55;18.08;;;10.30;99.90;;;;;;2090252;28;20060;-71
2023/02/03 01:21:27;;;;;;;19.38;17.35;;;10.20;99.90;;;;;;2091481;28;20068;-71
2023/02/03 01:22:31;;;;;;;19.77;16.98;;;10.30;99.90;;;;;;2092398;28;20111;-71
2023/02/03 01:23:32;;;;;;;26.00;18.80;;;10.30;99.90;;;;;;2092582;28;20040;-71
2023/02/03 01:24:32;;;;;;;24.02;17.80;;;10.30;99.90;;;;;;2090005;28;20029;-71
2023/02/03 01:25:34;;;;;;;20.45;17.35;;;10.30;99.90;;;;;;2092144;28;20032;-71
2023/02/03 01:26:35;;;;;;;22.30;18.45;;;10.30;99.90;;;;;;2091874;28;20025;-72
2023/02/03 01:27:36;;;;;;;23.02;17.20;;;10.30;99.90;;;;;;2091679;28;20558;-72
2023/02/03 01:28:37;;;;;;;24.13;17.52;;;10.30;99.90;;;;;;2091657;28;20032;-71
2023/02/03 01:29:37;;;;;;;19.85;17.75;;;10.30;99.90;;;;;;2090910;28;20020;-71
2023/02/03 01:30:38;;;;;;;23.77;19.27;;;10.30;99.90;;;;;;2090413;28;20107;-71
2023/02/03 01:31:40;;;;;;;24.02;19.40;;;10.30;99.90;;;;;;2092666;28;20025;-71
2023/02/03 01:32:41;;;;;;;23.48;18.38;;;10.30;99.90;;;;;;2091369;28;20028;-71
2023/02/03 01:33:45;;;;;;;22.90;18.45;;;10.30;99.90;;;;;;2091627;28;20035;-72
2023/02/03 01:34:45;;;;;;;23.95;18.85;;;10.30;99.90;;;;;;2092242;28;20979;-72
2023/02/03 01:35:46;;;;;;;23.10;18.38;;;10.30;99.90;;;;;;2091422;28;20033;-72
2023/02/03 01:36:46;;;;;;;23.67;17.73;;;10.30;99.90;;;;;;2090187;28;20039;-72
2023/02/03 01:37:47;;;;;;;23.42;17.30;;;10.30;99.90;;;;;;2091003;28;20035;-71
2023/02/03 01:38:47;;;;;;;23.10;17.98;;;10.30;99.90;;;;;;2092149;28;20024;-71
2023/02/03 01:39:48;;;;;;;28.17;19.48;;;10.30;99.90;;;;;;2090936;28;20021;-71
2023/02/03 01:40:48;;;;;;;23.15;18.00;;;10.30;99.90;;;;;;2090794;28;20035;-71
2023/02/03 01:41:49;;;;;;;20.83;17.45;;;10.30;99.90;;;;;;2091952;28;20431;-71
2023/02/03 01:42:49;;;;;;;23.35;19.02;;;10.30;99.90;;;;;;2091648;28;20021;-71
2023/02/03 01:43:52;;;;;;;23.73;17.92;;;10.30;99.90;;;;;;2092654;28;20027;-71
2023/02/03 01:44:53;;;;;;;23.02;19.42;;;10.30;99.90;;;;;;2091164;28;20061;-71
2023/02/03 01:45:54;;;;;;;22.80;17.55;;;10.30;99.90;;;;;;2090091;28;20417;-71
2023/02/03 01:46:55;;;;;;;21.05;18.55;;;10.30;99.90;;;;;;2090295;28;20049;-71
2023/02/03 01:47:57;;;;;;;21.67;18.63;;;10.30;99.90;;;;;;2091575;28;20035;-71
2023/02/03 01:49:30;;;;;;;25.23;18.58;;;10.30;99.90;;;;;;2090718;28;20476;-71
2023/02/03 01:50:34;;;;;;;25.83;18.58;;;10.30;99.90;;;;;;2091365;28;20154;-71
2023/02/03 01:51:37;;;;;;;21.75;18.08;;;10.30;99.90;;;;;;2090935;28;20021;-71
2023/02/03 01:52:41;;;;;;;21.98;18.38;;;10.30;99.90;;;;;;2091564;28;20075;-72
2023/02/03 01:53:43;;;;;;;20.95;16.98;;;10.30;99.90;;;;;;2091040;28;20055;-71
2023/02/03 01:54:47;;;;;;;24.50;18.55;;;10.30;99.90;;;;;;2089897;28;20471;-71
2023/02/03 01:55:49;;;;;;;22.02;17.27;;;10.30;99.90;;;;;;2091954;28;20086;-71
2023/02/03 01:56:57;;;;;;;22.65;17.63;;;10.30;99.90;;;;;;2089019;28;20024;-71
2023/02/03 01:58:03;;;;;;;20.17;17.65;;;10.30;99.90;;;;;;2091827;28;20483;-71
2023/02/03 01:59:04;;;;;;;24.85;17.50;;;10.30;99.90;;;;;;2090149;28;20075;-71
2023/02/03 02:00:06;;;;;;;23.70;17.42;;;10.30;99.90;;;;;;2091731;28;20062;-71
2023/02/03 02:01:07;;;;;;;21.73;16.80;;;10.40;99.90;;;;;;2092056;28;20029;-71
2023/02/03 02:02:09;;;;;;;23.02;17.60;;;10.30;99.90;;;;;;2091896;28;20017;-71
2023/02/03 02:03:10;;;;;;;18.83;16.67;;;10.30;99.90;;;;;;2091069;28;20449;-71
2023/02/03 02:04:11;;;;;;;24.38;17.90;;;10.30;99.90;;;;;;2088440;28;20750;-70
2023/02/03 02:05:30;;;;;;;22.77;17.48;;;10.30;99.90;;;;;;2088523;28;20037;-70
2023/02/03 02:06:30;;;;;;;23.70;18.08;;;10.40;99.90;;;;;;2092601;28;20066;-71
2023/02/03 02:07:34;;;;;;;21.42;16.98;;;10.40;99.90;;;;;;2091540;28;20060;-71
2023/02/03 02:08:39;;;;;;;21.60;16.67;;;10.30;99.90;;;;;;2092662;28;20024;-70
2023/02/03 02:09:39;;;;;;;19.67;17.33;;;10.30;99.90;;;;;;2088777;28;20031;-70
2023/02/03 02:10:40;;;;;;;22.23;17.17;;;10.30;99.90;;;;;;2091025;28;20368;-70
2023/02/03 02:11:41;;;;;;;20.40;16.50;;;10.30;99.90;;;;;;2091173;28;20052;-71
2023/02/03 02:12:41;;;;;;;19.60;16.88;;;10.30;99.90;;;;;;2088830;28;20032;-70
2023/02/03 02:13:43;;;;;;;20.45;16.98;;;10.30;99.90;;;;;;2090987;28;20025;-71
2023/02/03 02:14:46;;;;;;;24.95;17.50;;;10.30;99.90;;;;;;2092601;28;20022;-71
2023/02/03 02:16:21;;;;;;;21.70;17.30;;;10.30;99.90;;;;;;2092603;28;20067;-70
2023/02/03 02:17:53;;;;;;;20.85;16.45;;;10.30;99.90;;;;;;2089181;28;20127;-70
2023/02/03 02:19:15;;;;;;;21.05;17.02;;;10.30;99.90;;;;;;2088345;28;20120;-70
2023/02/03 02:20:53;;;;;;;21.17;17.05;;;10.30;99.90;;;;;;2086422;28;20028;-70
2023/02/03 02:22:10;;;;;;;18.20;15.95;;;10.30;99.90;;;;;;2093544;28;20674;-70
2023/02/03 02:23:49;;;;;;;22.77;16.58;;;10.30;99.90;;;;;;2094393;28;20036;-70
2023/02/03 02:25:13;;;;;;;22.25;17.02;;;10.30;99.90;;;;;;2092866;28;20435;-71
2023/02/03 02:26:31;;;;;;;22.10;16.08;;;10.30;99.90;;;;;;2093300;28;20098;-71
2023/02/03 02:28:00;;;;;;;21.50;16.15;;;10.30;99.90;;;;;;2093014;28;20029;-71
2023/02/03 02:29:11;;;;;;;20.13;15.85;;;10.30;99.90;;;;;;2084066;28;20028;-70
2023/02/03 02:30:43;;;;;;;19.38;16.05;;;10.30;99.90;;;;;;2091331;28;20020;-71
2023/02/03 02:31:43;;;;;;;22.88;16.13;;;10.20;99.90;;;;;;2091317;28;20495;-71
2023/02/03 02:33:28;;;;;;;19.80;15.23;;;10.20;99.90;;;;;;2090898;28;20369;-71
2023/02/03 02:34:56;;;;;;;20.40;15.73;;;10.20;99.90;;;;;;2091174;28;20663;-70
2023/02/03 02:36:17;;;;;;;23.95;15.55;;;10.30;99.90;;;;;;2090521;28;20025;-70
2023/02/03 02:37:40;;;;;;;19.20;14.70;;;10.20;99.90;;;;;;2090308;28;20025;-70
2023/02/03 02:38:47;;;;;;;18.80;15.18;;;10.20;99.90;;;;;;2091915;28;20119;-70
2023/02/03 02:40:15;;;;;;;16.08;14.05;;;10.20;99.90;;;;;;2088652;28;20067;-70
2023/02/03 02:41:25;;;;;;;20.13;14.73;;;10.30;99.90;;;;;;2090666;28;20121;-71
2023/02/03 02:42:40;;;;;;;21.40;14.40;;;10.20;99.90;;;;;;2090916;28;20029;-71
2023/02/03 02:43:45;;;;;;;18.98;13.82;;;10.20;99.90;;;;;;2091753;28;20036;-71
2023/02/03 02:45:03;;;;;;;18.08;14.15;;;10.30;99.90;;;;;;2090723;28;20074;-71
2023/02/03 02:46:36;;;;;;;22.27;14.80;;;10.30;99.90;;;;;;2091060;28;20107;-70
2023/02/03 02:47:37;;;;;;;16.85;13.13;;;10.20;99.90;;;;;;2088629;28;20048;-70
2023/02/03 02:48:54;;;;;;;18.40;14.23;;;10.20;99.90;;;;;;2092537;28;20025;-70
2023/02/03 02:50:10;;;;;;;15.95;13.88;;;10.30;99.90;;;;;;2090443;28;20086;-70
2023/02/03 02:51:14;;;;;;;21.80;13.95;;;10.30;99.90;;;;;;2091584;28;20125;-70
2023/02/03 02:52:17;;;;;;;16.63;13.60;;;10.30;99.90;;;;;;2093152;28;20028;-70
2023/02/03 02:53:21;;;;;;;16.42;14.07;;;10.30;99.90;;;;;;2091206;28;20031;-70
2023/02/03 02:54:24;;;;;;;18.73;13.55;;;10.30;99.90;;;;;;2088854;28;20076;-70
2023/02/03 02:55:32;;;;;;;18.10;13.88;;;10.30;99.90;;;;;;2091139;28;20024;-71
2023/02/03 02:56:35;;;;;;;14.48;12.80;;;10.30;99.90;;;;;;2091786;28;20095;-71
2023/02/03 02:57:37;;;;;;;16.77;13.45;;;10.30;99.90;;;;;;2090559;28;20021;-71
2023/02/03 02:58:42;;;;;;;17.95;13.27;;;10.30;99.90;;;;;;2091476;28;20153;-70
2023/02/03 02:59:45;;;;;;;17.27;12.95;;;10.30;99.90;;;;;;2090229;28;20538;-70
2023/02/03 03:00:45;;;;;;;17.02;12.95;;;10.30;99.90;;;;;;2090910;28;20029;-70
2023/02/03 03:01:46;;;;;;;16.35;12.80;;;10.30;99.90;;;;;;2091413;28;20035;-70
2023/02/03 03:02:47;;;;;;;18.67;13.40;;;10.30;99.90;;;;;;2090996;28;20408;-70
2023/02/03 03:03:48;;;;;;;17.02;13.55;;;10.40;99.90;;;;;;2091314;28;20096;-71
2023/02/03 03:04:49;;;;;;;19.20;12.70;;;10.30;99.90;;;;;;2090410;28;20016;-70
2023/02/03 03:05:52;;;;;;;18.75;12.30;;;10.30;99.90;;;;;;2091750;28;20486;-70
2023/02/03 03:07:03;;;;;;;18.02;12.13;;;10.40;99.90;;;;;;2083035;28;20863;-70
2023/02/03 03:08:05;;;;;;;19.77;12.20;;;10.30;99.90;;;;;;2088629;28;20071;-71
2023/02/03 03:09:18;;;;;;;16.35;11.90;;;10.30;99.90;;;;;;2088859;28;20029;-71
2023/02/03 03:10:23;;;;;;;17.23;11.80;;;10.30;99.90;;;;;;2091701;28;20025;-71
2023/02/03 03:11:28;;;;;;;18.10;11.98;;;10.30;99.90;;;;;;2093192;28;20553;-71
2023/02/03 03:12:33;;;;;;;18.13;12.02;;;10.30;99.90;;;;;;2091298;28;20033;-70
2023/02/03 03:13:38;;;;;;;18.60;11.70;;;10.40;99.90;;;;;;2093516;28;20025;-70
2023/02/03 03:14:43;;;;;;;15.02;11.50;;;10.30;99.90;;;;;;2092216;28;20579;-70
2023/02/03 03:15:44;;;;;;;17.40;11.60;;;10.30;99.90;;;;;;2089718;28;20024;-70
2023/02/03 03:16:56;;;;;;;14.43;10.50;;;10.40;99.90;;;;;;2092054;28;20056;-70
2023/02/03 03:18:09;;;;;;;17.73;11.68;;;10.40;99.90;;;;;;2092446;28;20021;-71
2023/02/03 03:19:15;;;;;;;18.10;11.52;;;10.40;99.90;;;;;;2091702;28;20021;-70
2023/02/03 03:20:20;;;;;;;17.15;10.75;;;10.30;99.90;;;;;;2090334;28;20024;-70
2023/02/03 03:21:30;;;;;;;15.52;11.38;;;10.30;99.90;;;;;;2091861;28;20456;-71
2023/02/03 03:22:38;;;;;;;15.45;11.23;;;10.30;99.90;;;;;;2086901;28;20031;-71
2023/02/03 03:23:43;;;;;;;14.70;10.95;;;10.30;99.90;;;;;;2091722;28;20078;-70
2023/02/03 03:24:48;;;;;;;15.27;10.45;;;10.30;99.90;;;;;;2093048;28;20108;-71
2023/02/03 03:25:57;;;;;;;17.23;11.45;;;10.40;99.90;;;;;;2100557;28;20046;-71
2023/02/03 03:27:07;;;;;;;15.93;10.03;;;10.40;99.90;;;;;;2097818;28;20075;-71
2023/02/03 03:28:14;;;;;;;19.02;9.98;;;10.30;99.90;;;;;;2092194;28;20363;-71
2023/02/03 03:29:30;;;;;;;14.73;10.02;;;10.30;99.90;;;;;;2094197;28;20540;-71
2023/02/03 03:30:36;;;;;;;21.40;10.38;;;10.30;99.90;;;;;;2092309;28;20130;-71
2023/02/03 03:31:38;;;;;;;18.67;10.35;;;10.30;99.90;;;;;;2090407;28;20032;-71
2023/02/03 03:32:39;;;;;;;16.65;10.35;;;10.40;99.90;;;;;;2093589;28;20036;-71
2023/02/03 03:33:40;;;;;;;18.20;10.55;;;10.40;99.90;;;;;;2090868;28;20064;-70
2023/02/03 03:34:41;;;;;;;13.02;9.52;;;10.40;99.90;;;;;;2092889;28;20492;-70
2023/02/03 03:35:59;;;;;;;15.60;9.52;;;10.40;99.90;;;;;;2094071;28;20472;-71
2023/02/03 03:37:20;;;;;;;13.85;9.63;;;10.40;99.90;;;;;;2100720;28;20024;-71
2023/02/03 03:38:31;;;;;;;18.63;9.60;;;10.40;99.90;;;;;;2095269;28;20033;-70
2023/02/03 03:39:52;;;;;;;16.65;9.82;;;10.30;99.90;;;;;;2093022;28;20024;-70
2023/02/03 03:41:13;;;;;;;13.70;10.00;;;10.30;99.90;;;;;;2093869;28;20099;-70
2023/02/03 03:42:24;;;;;;;14.68;8.30;;;10.30;99.90;;;;;;2093098;28;20373;-70
2023/02/03 03:43:30;;;;;;;15.05;8.88;;;10.30;99.90;;;;;;2092279;28;20099;-71
2023/02/03 03:44:59;;;;;;;12.38;8.52;;;10.30;99.90;;;;;;2091800;28;20411;-71
2023/02/03 03:46:11;;;;;;;15.13;8.52;;;10.30;99.90;;;;;;2092816;28;20028;-70
2023/02/03 03:47:19;;;;;;;15.57;8.20;;;10.30;99.90;;;;;;2092131;28;20032;-70
2023/02/03 03:48:38;;;;;;;14.93;8.73;;;10.30;99.90;;;;;;2091133;28;20611;-70
2023/02/03 03:49:43;;;;;;;15.13;8.15;;;10.30;99.90;;;;;;2090396;28;20064;-70
2023/02/03 03:50:50;;;;;;;15.85;8.68;;;10.30;99.90;;;;;;2093051;28;20035;-71
2023/02/03 03:52:00;;;;;;;15.45;8.43;;;10.30;99.90;;;;;;2090766;28;20073;-71
2023/02/03 03:53:03;;;;;;;12.75;8.20;;;10.30;99.90;;;;;;2090649;28;20036;-71
2023/02/03 03:54:09;;;;;;;11.85;7.82;;;10.30;99.90;;;;;;2091590;28;20041;-71
2023/02/03 03:55:11;;;;;;;13.90;7.43;;;10.30;99.90;;;;;;2091475;28;20023;-71
2023/02/03 03:56:19;;;;;;;14.63;7.68;;;10.30;99.90;;;;;;2092910;28;20028;-71
2023/02/03 03:57:38;;;;;;;14.00;8.82;;;10.30;99.90;;;;;;2091603;28;20665;-70
2023/02/03 03:58:44;;;;;;;15.57;8.27;;;10.30;99.90;;;;;;2093334;28;20036;-70
2023/02/03 03:59:48;;;;;;;13.82;8.63;;;10.40;99.90;;;;;;2091570;28;20021;-70
2023/02/03 04:00:49;;;;;;;12.73;8.02;;;10.30;99.90;;;;;;2092098;28;20020;-70
2023/02/03 04:01:51;;;;;;;14.10;7.63;;;10.30;99.90;;;;;;2091087;28;20064;-70
2023/02/03 04:02:54;;;;;;;12.25;8.13;;;10.40;99.90;;;;;;2092186;28;20029;-70
2023/02/03 04:03:58;;;;;;;10.40;7.28;;;10.40;99.90;;;;;;2090999;28;20120;-71
2023/02/03 04:05:01;;;;;;;11.73;6.93;;;10.40;99.90;;;;;;2091057;28;20114;-70
2023/02/03 04:06:02;;;;;;;11.93;7.35;;;10.30;99.90;;;;;;2094608;28;20376;-70
2023/02/03 04:07:03;;;;;;;18.10;7.20;;;10.40;99.90;;;;;;2092960;28;20100;-70
2023/02/03 04:08:04;;;;;;;12.23;7.18;;;10.40;99.90;;;;;;2093139;28;20108;-70
2023/02/03 04:09:04;;;;;;;12.73;6.95;;;10.40;99.90;;;;;;2090119;28;20082;-70
2023/02/03 04:10:30;;;;;;;9.98;6.43;;;10.40;99.90;;;;;;2091945;28;20029;-71
2023/02/03 04:12:49;;;;;;;11.25;6.18;;;10.30;99.90;;;;;;2092085;28;20028;-70
2023/02/03 04:13:50;;;;;;;11.27;6.97;;;10.30;99.90;;;;;;2093938;28;21535;-70
2023/02/03 04:14:50;;;;;;;13.05;6.85;;;10.30;99.90;;;;;;2094140;28;20029;-70
2023/02/03 04:15:51;;;;;;;14.45;6.80;;;10.30;99.90;;;;;;2092404;28;20067;-70
2023/02/03 04:16:51;;;;;;;12.45;6.22;;;10.30;99.90;;;;;;2091175;28;20021;-70
2023/02/03 04:17:53;;;;;;;11.35;6.88;;;10.30;99.90;;;;;;2092269;28;20108;-70
2023/02/03 04:18:54;;;;;;;12.77;6.57;;;10.30;99.90;;;;;;2092153;28;20013;-70
2023/02/03 04:19:54;;;;;;;11.75;6.63;;;10.30;99.90;;;;;;2091707;28;20465;-71
2023/02/03 04:20:55;;;;;;;12.70;6.63;;;10.30;99.90;;;;;;2093110;28;20017;-71
2023/02/03 04:21:56;;;;;;;12.02;6.25;;;10.30;99.90;;;;;;2089435;28;20031;-70
2023/02/03 04:22:57;;;;;;;10.60;5.97;;;10.30;99.90;;;;;;2091739;28;20017;-70
2023/02/03 04:23:58;;;;;;;11.43;6.25;;;10.30;99.90;;;;;;2094003;28;20024;-70
2023/02/03 04:24:58;;;;;;;11.27;7.18;;;10.30;99.90;;;;;;2091473;28;20036;-70
2023/02/03 04:26:00;;;;;;;12.35;5.88;;;10.30;99.90;;;;;;2092884;28;20025;-70
2023/02/03 04:27:00;;;;;;;12.52;6.28;;;10.30;99.90;;;;;;2093315;28;20100;-70
2023/02/03 04:28:01;;;;;;;10.75;6.32;;;10.40;99.90;;;;;;2092531;28;20074;-70
2023/02/03 04:29:02;;;;;;;13.05;6.40;;;10.40;99.90;;;;;;2093046;28;20435;-71
2023/02/03 04:30:03;;;;;;;10.50;6.13;;;10.40;99.90;;;;;;2092064;28;20333;-71
2023/02/03 04:31:04;;;;;;;10.68;5.78;;;10.40;99.90;;;;;;2093127;28;20426;-71
2023/02/03 04:32:04;;;;;;;8.90;5.75;;;10.40;99.90;;;;;;2090675;28;20082;-70
2023/02/03 04:33:05;;;;;;;12.13;6.38;;;10.40;99.90;;;;;;2092111;28;20032;-70
2023/02/03 04:34:05;;;;;;;11.02;6.20;;;10.40;99.90;;;;;;2092658;28;20056;-70
2023/02/03 04:35:07;;;;;;;12.95;6.85;;;10.40;99.90;;;;;;2089802;28;20033;-71
2023/02/03 04:36:08;;;;;;;12.40;5.85;;;10.40;99.90;;;;;;2093663;28;20079;-71
2023/02/03 04:37:08;;;;;;;12.85;7.32;;;10.40;99.90;;;;;;2091763;28;20052;-70
2023/02/03 04:38:09;;;;;;;11.00;6.18;;;10.40;99.90;;;;;;2093304;28;20116;-71
2023/02/03 04:39:09;;;;;;;11.93;6.22;;;10.30;99.90;;;;;;2092188;28;20033;-71
2023/02/03 04:40:10;;;;;;;13.80;6.05;;;10.30;99.90;;;;;;2090955;28;20498;-71
2023/02/03 04:41:11;;;;;;;10.40;5.95;;;10.40;99.90;;;;;;2092112;28;20036;-71
2023/02/03 04:42:11;;;;;;;12.85;6.50;;;10.40;99.90;;;;;;2090429;28;20021;-71
2023/02/03 04:43:13;;;;;;;11.70;6.18;;;10.40;99.90;;;;;;2093285;28;20135;-71
2023/02/03 04:44:14;;;;;;;10.52;5.55;;;10.40;99.90;;;;;;2091992;28;20128;-70
2023/02/03 04:45:14;;;;;;;13.32;6.13;;;10.40;99.90;;;;;;2092398;28;20032;-70
2023/02/03 04:46:15;;;;;;;13.32;5.95;;;10.40;99.90;;;;;;2090640;28;20040;-70
2023/02/03 04:47:17;;;;;;;11.23;6.07;;;10.40;99.90;;;;;;2091176;28;20056;-70
2023/02/03 04:48:17;;;;;;;13.32;5.82;;;10.40;99.90;;;;;;2092329;28;20516;-70
2023/02/03 04:49:18;;;;;;;9.82;5.10;;;10.40;99.90;;;;;;2093524;28;20433;-70
2023/02/03 04:50:18;;;;;;;9.88;5.85;;;10.40;99.90;;;;;;2091866;28;20039;-70
2023/02/03 04:51:19;;;;;;;11.07;6.38;;;10.40;99.90;;;;;;2091767;28;20035;-70
2023/02/03 04:52:19;;;;;;;11.07;6.15;;;10.40;99.90;;;;;;2093097;28;20024;-70
2023/02/03 04:53:20;;;;;;;10.80;5.68;;;10.40;99.90;;;;;;2092788;28;20380;-70
2023/02/03 04:54:20;;;;;;;11.77;6.07;;;10.40;99.90;;;;;;2091685;28;20042;-70
2023/02/03 04:55:21;;;;;;;9.27;5.90;;;10.40;99.90;;;;;;2093231;28;20024;-70
2023/02/03 04:56:21;;;;;;;10.77;6.05;;;10.40;99.90;;;;;;2090985;28;20028;-71
2023/02/03 04:57:22;;;;;;;11.27;5.50;;;10.40;99.90;;;;;;2091088;28;20676;-71
2023/02/03 04:58:23;;;;;;;10.65;5.93;;;10.40;99.90;;;;;;2092856;28;20388;-70
2023/02/03 04:59:23;;;;;;;10.88;6.05;;;10.40;99.90;;;;;;2091734;28;20534;-70
2023/02/03 05:00:25;;;;;;;8.77;5.60;;;10.40;99.90;;;;;;2092369;28;20029;-70
2023/02/03 05:01:25;;;;;;;8.65;6.15;;;10.40;99.90;;;;;;2091032;28;20044;-70
2023/02/03 05:02:26;;;;;;;11.90;6.10;;;10.40;99.90;;;;;;2090245;28;20021;-71
2023/02/03 05:03:26;;;;;;;10.05;6.93;;;10.40;99.90;;;;;;2094062;28;20026;-70
2023/02/03 05:04:27;;;;;;;15.23;6.07;;;10.40;99.90;;;;;;2090171;28;20044;-71
2023/02/03 05:05:27;;;;;;;11.02;6.20;;;10.40;99.90;;;;;;2092204;28;20112;-71
2023/02/03 05:06:29;;;;;;;10.05;6.55;;;10.40;99.90;;;;;;2089829;28;20025;-71
2023/02/03 05:07:29;;;;;;;13.65;5.85;;;10.40;99.90;;;;;;2091762;28;20029;-70
2023/02/03 05:08:30;;;;;;;10.73;5.80;;;10.40;99.90;;;;;;2091047;28;20047;-71
2023/02/03 05:09:30;;;;;;;10.80;6.05;;;10.40;99.90;;;;;;2091900;28;20056;-71
2023/02/03 05:10:31;;;;;;;9.25;6.22;;;10.40;99.90;;;;;;2090932;28;20028;-71
2023/02/03 05:11:32;;;;;;;9.95;6.10;;;10.40;99.90;;;;;;2091998;28;20916;-71
2023/02/03 05:12:32;;;;;;;14.07;5.97;;;10.40;99.90;;;;;;2090392;28;20035;-71
2023/02/03 05:13:33;;;;;;;11.40;6.45;;;10.40;99.90;;;;;;2092581;28;20023;-70
2023/02/03 05:14:33;;;;;;;12.32;6.72;;;10.40;99.90;;;;;;2092269;28;20017;-70
2023/02/03 05:15:34;;;;;;;15.35;6.45;;;10.40;99.90;;;;;;2092075;28;20020;-70
2023/02/03 05:16:34;;;;;;;10.88;6.25;;;10.40;99.90;;;;;;2090219;28;20028;-70
2023/02/03 05:17:37;;;;;;;11.43;6.25;;;10.40;99.90;;;;;;2092246;28;20578;-70
2023/02/03 05:18:38;;;;;;;11.80;5.60;;;10.40;99.90;;;;;;2092738;28;20024;-70
2023/02/03 05:19:38;;;;;;;13.13;6.05;;;10.40;99.90;;;;;;2092403;28;20024;-70
2023/02/03 05:20:39;;;;;;;13.43;6.00;;;10.40;99.90;;;;;;2091378;28;20466;-70
2023/02/03 05:21:39;;;;;;;10.65;5.30;;;10.40;99.90;;;;;;2091784;28;20113;-70
2023/02/03 05:22:40;;;;;;;11.32;6.13;;;10.40;99.90;;;;;;2093507;28;20112;-70
2023/02/03 05:23:43;;;;;;;9.27;5.45;;;10.40;99.90;;;;;;2090154;28;20673;-70
2023/02/03 05:24:43;;;;;;;10.43;5.53;;;10.40;99.90;;;;;;2091604;28;20451;-71
2023/02/03 05:25:44;;;;;;;10.98;5.53;;;10.40;99.90;;;;;;2090016;28;20033;-70
2023/02/03 05:26:45;;;;;;;15.60;6.22;;;10.40;99.90;;;;;;2090811;28;20456;-70
2023/02/03 05:27:45;;;;;;;9.48;5.60;;;10.40;99.90;;;;;;2093768;28;20025;-70
2023/02/03 05:28:46;;;;;;;11.43;5.93;;;10.40;99.90;;;;;;2092454;28;20099;-70